sensor_id;sensor_type;location;lat;lon;timestamp;P1;durP1;ratioP1;P2;durP2;ratioP2
4933;SDS011;2482;49.154;8.254;2022-10-26T00:01:07;8.87;;;3.63;;
4933;SDS011;2482;49.154;8.254;2022-10-26T00:03:35;17.03;;;4.17;;
4933;SDS011;2482;49.154;8.254;2022-10-26T00:06:07;16.73;;;3.53;;
4933;SDS011;2482;49.154;8.254;2022-10-26T00:08:37;5.17;;;3.80;;
4933;SDS011;2482;49.154;8.254;2022-10-26T00:11:05;8.53;;;3.90;;
4933;SDS011;2482;49.154;8.254;2022-10-26T00:13:32;9.50;;;4.03;;
4933;SDS011;2482;49.154;8.254;2022-10-26T00:16:00;6.40;;;4.03;;
4933;SDS011;2482;49.154;8.254;2022-10-26T00:18:36;14.00;;;3.90;;
4933;SDS011;2482;49.154;8.254;2022-10-26T00:21:04;8.37;;;3.70;;
4933;SDS011;2482;49.154;8.254;2022-10-26T00:23:33;9.10;;;3.50;;
4933;SDS011;2482;49.154;8.254;2022-10-26T00:26:00;7.00;;;3.93;;
4933;SDS011;2482;49.154;8.254;2022-10-26T00:28:28;8.27;;;3.33;;
4933;SDS011;2482;49.154;8.254;2022-10-26T00:30:59;6.93;;;3.77;;
4933;SDS011;2482;49.154;8.254;2022-10-26T00:33:31;6.47;;;3.33;;
4933;SDS011;2482;49.154;8.254;2022-10-26T00:35:59;14.13;;;4.00;;
4933;SDS011;2482;49.154;8.254;2022-10-26T00:38:26;12.93;;;3.90;;
4933;SDS011;2482;49.154;8.254;2022-10-26T00:40:53;7.37;;;3.43;;
4933;SDS011;2482;49.154;8.254;2022-10-26T00:45:48;8.17;;;4.10;;
4933;SDS011;2482;49.154;8.254;2022-10-26T00:48:36;6.63;;;3.33;;
4933;SDS011;2482;49.154;8.254;2022-10-26T00:51:09;10.23;;;4.20;;
4933;SDS011;2482;49.154;8.254;2022-10-26T00:54:15;6.43;;;3.33;;
4933;SDS011;2482;49.154;8.254;2022-10-26T00:56:48;7.30;;;3.50;;
4933;SDS011;2482;49.154;8.254;2022-10-26T00:59:17;7.10;;;3.70;;
4933;SDS011;2482;49.154;8.254;2022-10-26T01:01:46;10.97;;;3.57;;
4933;SDS011;2482;49.154;8.254;2022-10-26T01:04:14;5.93;;;4.30;;
4933;SDS011;2482;49.154;8.254;2022-10-26T01:06:41;4.50;;;3.97;;
4933;SDS011;2482;49.154;8.254;2022-10-26T01:09:10;7.43;;;3.50;;
4933;SDS011;2482;49.154;8.254;2022-10-26T01:11:38;5.10;;;3.77;;
4933;SDS011;2482;49.154;8.254;2022-10-26T01:14:06;10.53;;;4.33;;
4933;SDS011;2482;49.154;8.254;2022-10-26T01:31:53;6.53;;;3.73;;
4933;SDS011;2482;49.154;8.254;2022-10-26T01:34:33;6.73;;;3.90;;
4933;SDS011;2482;49.154;8.254;2022-10-26T01:37:24;9.73;;;4.00;;
4933;SDS011;2482;49.154;8.254;2022-10-26T01:40:01;9.93;;;4.27;;
4933;SDS011;2482;49.154;8.254;2022-10-26T01:42:52;8.87;;;4.37;;
4933;SDS011;2482;49.154;8.254;2022-10-26T01:45:23;8.93;;;3.90;;
4933;SDS011;2482;49.154;8.254;2022-10-26T01:47:50;8.23;;;3.70;;
4933;SDS011;2482;49.154;8.254;2022-10-26T01:50:20;7.73;;;3.60;;
4933;SDS011;2482;49.154;8.254;2022-10-26T01:52:48;12.23;;;4.23;;
4933;SDS011;2482;49.154;8.254;2022-10-26T01:58:07;9.10;;;4.30;;
4933;SDS011;2482;49.154;8.254;2022-10-26T02:01:01;5.80;;;3.40;;
4933;SDS011;2482;49.154;8.254;2022-10-26T02:04:01;7.47;;;3.60;;
4933;SDS011;2482;49.154;8.254;2022-10-26T02:18:57;6.43;;;3.80;;
4933;SDS011;2482;49.154;8.254;2022-10-26T02:21:34;9.97;;;3.50;;
4933;SDS011;2482;49.154;8.254;2022-10-26T02:24:07;6.43;;;3.60;;
4933;SDS011;2482;49.154;8.254;2022-10-26T02:26:39;17.13;;;5.27;;
4933;SDS011;2482;49.154;8.254;2022-10-26T02:29:10;8.23;;;3.77;;
4933;SDS011;2482;49.154;8.254;2022-10-26T02:31:42;8.33;;;3.77;;
4933;SDS011;2482;49.154;8.254;2022-10-26T02:34:13;8.90;;;4.27;;
4933;SDS011;2482;49.154;8.254;2022-10-26T02:36:46;4.73;;;3.30;;
4933;SDS011;2482;49.154;8.254;2022-10-26T02:39:22;9.47;;;3.63;;
4933;SDS011;2482;49.154;8.254;2022-10-26T02:41:51;4.93;;;2.63;;
4933;SDS011;2482;49.154;8.254;2022-10-26T02:44:24;5.60;;;3.67;;
4933;SDS011;2482;49.154;8.254;2022-10-26T02:46:55;10.10;;;4.20;;
4933;SDS011;2482;49.154;8.254;2022-10-26T02:49:23;6.10;;;3.63;;
4933;SDS011;2482;49.154;8.254;2022-10-26T02:52:00;5.97;;;3.67;;
4933;SDS011;2482;49.154;8.254;2022-10-26T02:54:57;11.47;;;3.70;;
4933;SDS011;2482;49.154;8.254;2022-10-26T02:57:37;7.80;;;4.13;;
4933;SDS011;2482;49.154;8.254;2022-10-26T03:00:12;5.87;;;3.50;;
4933;SDS011;2482;49.154;8.254;2022-10-26T03:02:42;8.20;;;3.80;;
4933;SDS011;2482;49.154;8.254;2022-10-26T03:05:47;10.17;;;4.00;;
4933;SDS011;2482;49.154;8.254;2022-10-26T03:08:08;5.13;;;3.27;;
4933;SDS011;2482;49.154;8.254;2022-10-26T03:10:37;7.10;;;3.10;;
4933;SDS011;2482;49.154;8.254;2022-10-26T03:13:08;12.53;;;4.00;;
4933;SDS011;2482;49.154;8.254;2022-10-26T03:15:36;8.03;;;3.40;;
4933;SDS011;2482;49.154;8.254;2022-10-26T03:18:04;7.53;;;3.93;;
4933;SDS011;2482;49.154;8.254;2022-10-26T03:20:31;8.33;;;3.53;;
4933;SDS011;2482;49.154;8.254;2022-10-26T03:22:58;4.47;;;3.10;;
4933;SDS011;2482;49.154;8.254;2022-10-26T03:25:25;4.60;;;3.40;;
4933;SDS011;2482;49.154;8.254;2022-10-26T03:27:59;3.67;;;2.87;;
4933;SDS011;2482;49.154;8.254;2022-10-26T03:30:29;6.77;;;2.70;;
4933;SDS011;2482;49.154;8.254;2022-10-26T03:32:57;3.87;;;3.23;;
4933;SDS011;2482;49.154;8.254;2022-10-26T03:35:24;8.90;;;3.53;;
4933;SDS011;2482;49.154;8.254;2022-10-26T03:37:51;5.20;;;3.57;;
4933;SDS011;2482;49.154;8.254;2022-10-26T03:40:18;9.87;;;4.33;;
4933;SDS011;2482;49.154;8.254;2022-10-26T03:42:45;5.40;;;3.30;;
4933;SDS011;2482;49.154;8.254;2022-10-26T03:45:12;6.90;;;3.10;;
4933;SDS011;2482;49.154;8.254;2022-10-26T03:47:43;5.37;;;3.10;;
4933;SDS011;2482;49.154;8.254;2022-10-26T03:50:12;10.63;;;3.77;;
4933;SDS011;2482;49.154;8.254;2022-10-26T03:52:41;5.83;;;3.33;;
4933;SDS011;2482;49.154;8.254;2022-10-26T03:55:09;5.47;;;2.80;;
4933;SDS011;2482;49.154;8.254;2022-10-26T03:57:42;7.13;;;2.67;;
4933;SDS011;2482;49.154;8.254;2022-10-26T04:00:11;9.00;;;3.83;;
4933;SDS011;2482;49.154;8.254;2022-10-26T04:02:41;12.90;;;4.00;;
4933;SDS011;2482;49.154;8.254;2022-10-26T04:05:14;8.93;;;3.90;;
4933;SDS011;2482;49.154;8.254;2022-10-26T04:07:42;11.37;;;4.50;;
4933;SDS011;2482;49.154;8.254;2022-10-26T04:10:09;6.20;;;3.57;;
4933;SDS011;2482;49.154;8.254;2022-10-26T04:12:36;8.57;;;3.67;;
4933;SDS011;2482;49.154;8.254;2022-10-26T04:15:04;8.43;;;3.50;;
4933;SDS011;2482;49.154;8.254;2022-10-26T04:17:32;8.50;;;3.40;;
4933;SDS011;2482;49.154;8.254;2022-10-26T04:19:59;5.40;;;3.80;;
4933;SDS011;2482;49.154;8.254;2022-10-26T04:22:26;8.93;;;3.80;;
4933;SDS011;2482;49.154;8.254;2022-10-26T04:24:53;5.33;;;3.20;;
4933;SDS011;2482;49.154;8.254;2022-10-26T04:27:20;4.60;;;3.53;;
4933;SDS011;2482;49.154;8.254;2022-10-26T04:29:47;8.47;;;3.80;;
4933;SDS011;2482;49.154;8.254;2022-10-26T04:32:14;4.30;;;3.30;;
4933;SDS011;2482;49.154;8.254;2022-10-26T04:34:41;5.27;;;3.37;;
4933;SDS011;2482;49.154;8.254;2022-10-26T04:37:08;4.60;;;3.30;;
4933;SDS011;2482;49.154;8.254;2022-10-26T04:39:35;4.97;;;3.00;;
4933;SDS011;2482;49.154;8.254;2022-10-26T04:42:02;3.63;;;3.10;;
4933;SDS011;2482;49.154;8.254;2022-10-26T04:44:29;5.07;;;3.13;;
4933;SDS011;2482;49.154;8.254;2022-10-26T04:46:56;6.13;;;3.43;;
4933;SDS011;2482;49.154;8.254;2022-10-26T04:49:23;8.87;;;3.80;;
4933;SDS011;2482;49.154;8.254;2022-10-26T04:51:50;6.40;;;3.40;;
4933;SDS011;2482;49.154;8.254;2022-10-26T04:54:17;7.93;;;3.90;;
4933;SDS011;2482;49.154;8.254;2022-10-26T04:56:44;5.70;;;3.63;;
4933;SDS011;2482;49.154;8.254;2022-10-26T04:59:12;9.93;;;3.83;;
4933;SDS011;2482;49.154;8.254;2022-10-26T05:01:39;4.57;;;3.10;;
4933;SDS011;2482;49.154;8.254;2022-10-26T05:04:06;4.40;;;3.43;;
4933;SDS011;2482;49.154;8.254;2022-10-26T05:06:33;9.23;;;3.70;;
4933;SDS011;2482;49.154;8.254;2022-10-26T05:09:00;9.03;;;3.63;;
4933;SDS011;2482;49.154;8.254;2022-10-26T05:11:27;4.63;;;3.20;;
4933;SDS011;2482;49.154;8.254;2022-10-26T05:13:54;9.70;;;3.53;;
4933;SDS011;2482;49.154;8.254;2022-10-26T05:16:21;7.10;;;3.23;;
4933;SDS011;2482;49.154;8.254;2022-10-26T05:18:48;4.70;;;3.30;;
4933;SDS011;2482;49.154;8.254;2022-10-26T05:21:15;4.87;;;3.17;;
4933;SDS011;2482;49.154;8.254;2022-10-26T05:23:48;8.60;;;3.47;;
4933;SDS011;2482;49.154;8.254;2022-10-26T05:26:19;10.20;;;3.97;;
4933;SDS011;2482;49.154;8.254;2022-10-26T05:28:47;4.50;;;3.37;;
4933;SDS011;2482;49.154;8.254;2022-10-26T05:31:17;5.83;;;3.10;;
4933;SDS011;2482;49.154;8.254;2022-10-26T05:33:49;5.33;;;3.13;;
4933;SDS011;2482;49.154;8.254;2022-10-26T05:36:17;4.47;;;3.00;;
4933;SDS011;2482;49.154;8.254;2022-10-26T05:38:44;5.37;;;3.30;;
4933;SDS011;2482;49.154;8.254;2022-10-26T05:41:12;3.83;;;2.90;;
4933;SDS011;2482;49.154;8.254;2022-10-26T05:43:38;4.20;;;3.03;;
4933;SDS011;2482;49.154;8.254;2022-10-26T05:46:06;6.03;;;3.70;;
4933;SDS011;2482;49.154;8.254;2022-10-26T05:48:32;8.80;;;3.20;;
4933;SDS011;2482;49.154;8.254;2022-10-26T05:51:00;8.30;;;3.30;;
4933;SDS011;2482;49.154;8.254;2022-10-26T05:53:27;9.70;;;3.30;;
4933;SDS011;2482;49.154;8.254;2022-10-26T05:55:54;12.73;;;3.63;;
4933;SDS011;2482;49.154;8.254;2022-10-26T05:58:23;11.67;;;4.17;;
4933;SDS011;2482;49.154;8.254;2022-10-26T06:06:52;4.60;;;3.20;;
4933;SDS011;2482;49.154;8.254;2022-10-26T06:09:20;5.70;;;3.30;;
4933;SDS011;2482;49.154;8.254;2022-10-26T06:11:48;5.60;;;3.50;;
4933;SDS011;2482;49.154;8.254;2022-10-26T06:14:20;6.30;;;3.73;;
4933;SDS011;2482;49.154;8.254;2022-10-26T06:25:27;4.60;;;3.93;;
4933;SDS011;2482;49.154;8.254;2022-10-26T06:30:51;8.33;;;4.50;;
4933;SDS011;2482;49.154;8.254;2022-10-26T06:33:18;6.30;;;3.40;;
4933;SDS011;2482;49.154;8.254;2022-10-26T06:36:22;4.50;;;2.77;;
4933;SDS011;2482;49.154;8.254;2022-10-26T06:39:08;6.30;;;3.43;;
4933;SDS011;2482;49.154;8.254;2022-10-26T06:41:38;10.10;;;3.63;;
4933;SDS011;2482;49.154;8.254;2022-10-26T06:44:05;8.17;;;3.80;;
4933;SDS011;2482;49.154;8.254;2022-10-26T06:46:45;4.40;;;3.07;;
4933;SDS011;2482;49.154;8.254;2022-10-26T06:49:34;6.13;;;3.00;;
4933;SDS011;2482;49.154;8.254;2022-10-26T06:52:19;6.53;;;3.17;;
4933;SDS011;2482;49.154;8.254;2022-10-26T06:55:13;7.33;;;3.63;;
4933;SDS011;2482;49.154;8.254;2022-10-26T06:57:41;8.20;;;3.47;;
4933;SDS011;2482;49.154;8.254;2022-10-26T07:02:40;4.70;;;3.87;;
4933;SDS011;2482;49.154;8.254;2022-10-26T07:05:07;7.10;;;3.90;;
4933;SDS011;2482;49.154;8.254;2022-10-26T07:07:47;7.27;;;3.80;;
4933;SDS011;2482;49.154;8.254;2022-10-26T07:10:14;11.77;;;4.37;;
4933;SDS011;2482;49.154;8.254;2022-10-26T07:12:41;10.67;;;4.30;;
4933;SDS011;2482;49.154;8.254;2022-10-26T07:15:08;8.43;;;4.33;;
4933;SDS011;2482;49.154;8.254;2022-10-26T07:17:45;4.00;;;2.97;;
4933;SDS011;2482;49.154;8.254;2022-10-26T07:20:16;6.20;;;3.50;;
4933;SDS011;2482;49.154;8.254;2022-10-26T07:22:49;13.73;;;6.83;;
4933;SDS011;2482;49.154;8.254;2022-10-26T07:25:20;14.63;;;10.70;;
4933;SDS011;2482;49.154;8.254;2022-10-26T07:27:49;9.77;;;6.37;;
4933;SDS011;2482;49.154;8.254;2022-10-26T07:30:16;6.47;;;4.80;;
4933;SDS011;2482;49.154;8.254;2022-10-26T07:32:43;5.60;;;3.80;;
4933;SDS011;2482;49.154;8.254;2022-10-26T07:35:10;12.50;;;4.00;;
4933;SDS011;2482;49.154;8.254;2022-10-26T07:37:37;11.27;;;4.00;;
4933;SDS011;2482;49.154;8.254;2022-10-26T07:40:05;5.13;;;3.57;;
4933;SDS011;2482;49.154;8.254;2022-10-26T07:42:33;10.23;;;3.90;;
4933;SDS011;2482;49.154;8.254;2022-10-26T07:45:02;7.10;;;3.67;;
4933;SDS011;2482;49.154;8.254;2022-10-26T07:47:29;7.50;;;3.70;;
4933;SDS011;2482;49.154;8.254;2022-10-26T07:49:56;8.40;;;3.27;;
4933;SDS011;2482;49.154;8.254;2022-10-26T07:52:23;5.03;;;3.30;;
4933;SDS011;2482;49.154;8.254;2022-10-26T07:54:50;7.67;;;3.30;;
4933;SDS011;2482;49.154;8.254;2022-10-26T07:57:17;8.03;;;3.77;;
4933;SDS011;2482;49.154;8.254;2022-10-26T07:59:44;5.57;;;3.30;;
4933;SDS011;2482;49.154;8.254;2022-10-26T08:02:11;5.03;;;2.97;;
4933;SDS011;2482;49.154;8.254;2022-10-26T08:04:38;7.20;;;3.20;;
4933;SDS011;2482;49.154;8.254;2022-10-26T08:07:05;9.77;;;3.30;;
4933;SDS011;2482;49.154;8.254;2022-10-26T08:09:32;13.67;;;3.40;;
4933;SDS011;2482;49.154;8.254;2022-10-26T08:11:59;4.37;;;2.70;;
4933;SDS011;2482;49.154;8.254;2022-10-26T08:14:26;4.50;;;3.13;;
4933;SDS011;2482;49.154;8.254;2022-10-26T08:16:53;6.23;;;2.63;;
4933;SDS011;2482;49.154;8.254;2022-10-26T08:19:20;7.67;;;3.13;;
4933;SDS011;2482;49.154;8.254;2022-10-26T08:21:48;4.83;;;3.03;;
4933;SDS011;2482;49.154;8.254;2022-10-26T08:24:15;9.90;;;3.07;;
4933;SDS011;2482;49.154;8.254;2022-10-26T08:26:42;4.17;;;2.40;;
4933;SDS011;2482;49.154;8.254;2022-10-26T08:29:09;11.50;;;3.30;;
4933;SDS011;2482;49.154;8.254;2022-10-26T08:31:35;6.20;;;2.37;;
4933;SDS011;2482;49.154;8.254;2022-10-26T08:34:02;6.87;;;3.23;;
4933;SDS011;2482;49.154;8.254;2022-10-26T08:36:29;4.30;;;2.40;;
4933;SDS011;2482;49.154;8.254;2022-10-26T08:38:57;6.00;;;3.40;;
4933;SDS011;2482;49.154;8.254;2022-10-26T08:41:32;8.27;;;3.40;;
4933;SDS011;2482;49.154;8.254;2022-10-26T08:44:05;5.23;;;2.90;;
4933;SDS011;2482;49.154;8.254;2022-10-26T08:47:17;6.73;;;2.80;;
4933;SDS011;2482;49.154;8.254;2022-10-26T08:52:43;4.80;;;2.63;;
4933;SDS011;2482;49.154;8.254;2022-10-26T08:55:28;10.07;;;2.53;;
4933;SDS011;2482;49.154;8.254;2022-10-26T08:58:14;3.93;;;2.83;;
4933;SDS011;2482;49.154;8.254;2022-10-26T09:00:46;8.80;;;3.20;;
4933;SDS011;2482;49.154;8.254;2022-10-26T09:03:15;3.33;;;3.03;;
4933;SDS011;2482;49.154;8.254;2022-10-26T09:05:54;3.27;;;2.83;;
4933;SDS011;2482;49.154;8.254;2022-10-26T09:14:14;5.27;;;2.50;;
4933;SDS011;2482;49.154;8.254;2022-10-26T09:22:26;6.90;;;2.90;;
4933;SDS011;2482;49.154;8.254;2022-10-26T09:25:21;8.73;;;2.60;;
4933;SDS011;2482;49.154;8.254;2022-10-26T09:27:50;7.73;;;2.60;;
4933;SDS011;2482;49.154;8.254;2022-10-26T09:30:22;7.30;;;2.57;;
4933;SDS011;2482;49.154;8.254;2022-10-26T09:32:51;3.73;;;2.80;;
4933;SDS011;2482;49.154;8.254;2022-10-26T09:35:49;8.20;;;2.97;;
4933;SDS011;2482;49.154;8.254;2022-10-26T09:49:44;6.20;;;2.60;;
4933;SDS011;2482;49.154;8.254;2022-10-26T09:52:29;7.17;;;3.23;;
4933;SDS011;2482;49.154;8.254;2022-10-26T09:54:56;5.10;;;2.00;;
4933;SDS011;2482;49.154;8.254;2022-10-26T09:57:23;8.70;;;2.60;;
4933;SDS011;2482;49.154;8.254;2022-10-26T09:59:50;7.70;;;2.20;;
4933;SDS011;2482;49.154;8.254;2022-10-26T10:05:22;7.30;;;2.43;;
4933;SDS011;2482;49.154;8.254;2022-10-26T10:08:24;7.20;;;2.43;;
4933;SDS011;2482;49.154;8.254;2022-10-26T10:11:09;5.60;;;2.63;;
4933;SDS011;2482;49.154;8.254;2022-10-26T10:13:40;5.07;;;3.13;;
4933;SDS011;2482;49.154;8.254;2022-10-26T10:18:53;6.20;;;2.40;;
4933;SDS011;2482;49.154;8.254;2022-10-26T10:24:19;6.80;;;2.40;;
4933;SDS011;2482;49.154;8.254;2022-10-26T10:27:00;4.93;;;2.50;;
4933;SDS011;2482;49.154;8.254;2022-10-26T10:29:28;8.50;;;2.67;;
4933;SDS011;2482;49.154;8.254;2022-10-26T10:31:59;6.03;;;2.50;;
4933;SDS011;2482;49.154;8.254;2022-10-26T10:34:29;5.40;;;2.47;;
4933;SDS011;2482;49.154;8.254;2022-10-26T10:36:57;7.10;;;2.50;;
4933;SDS011;2482;49.154;8.254;2022-10-26T10:39:33;6.13;;;2.60;;
4933;SDS011;2482;49.154;8.254;2022-10-26T10:42:13;8.80;;;2.87;;
4933;SDS011;2482;49.154;8.254;2022-10-26T10:44:51;7.80;;;3.10;;
4933;SDS011;2482;49.154;8.254;2022-10-26T10:47:30;8.97;;;2.30;;
4933;SDS011;2482;49.154;8.254;2022-10-26T10:50:04;7.03;;;2.10;;
4933;SDS011;2482;49.154;8.254;2022-10-26T10:52:41;8.63;;;2.40;;
4933;SDS011;2482;49.154;8.254;2022-10-26T10:57:44;6.37;;;2.90;;
4933;SDS011;2482;49.154;8.254;2022-10-26T11:00:51;6.83;;;2.47;;
4933;SDS011;2482;49.154;8.254;2022-10-26T11:03:36;6.83;;;2.33;;
4933;SDS011;2482;49.154;8.254;2022-10-26T11:06:20;6.17;;;2.70;;
4933;SDS011;2482;49.154;8.254;2022-10-26T11:11:33;5.80;;;2.10;;
4933;SDS011;2482;49.154;8.254;2022-10-26T11:14:13;12.83;;;2.73;;
4933;SDS011;2482;49.154;8.254;2022-10-26T11:17:03;10.47;;;2.50;;
4933;SDS011;2482;49.154;8.254;2022-10-26T11:19:52;5.20;;;2.27;;
4933;SDS011;2482;49.154;8.254;2022-10-26T11:22:29;2.73;;;1.90;;
4933;SDS011;2482;49.154;8.254;2022-10-26T11:25:04;5.30;;;2.50;;
4933;SDS011;2482;49.154;8.254;2022-10-26T11:27:51;5.10;;;2.20;;
4933;SDS011;2482;49.154;8.254;2022-10-26T11:30:29;4.80;;;2.30;;
4933;SDS011;2482;49.154;8.254;2022-10-26T11:33:45;5.53;;;2.40;;
4933;SDS011;2482;49.154;8.254;2022-10-26T11:36:04;8.90;;;2.60;;
4933;SDS011;2482;49.154;8.254;2022-10-26T11:38:39;3.63;;;2.27;;
4933;SDS011;2482;49.154;8.254;2022-10-26T11:41:32;7.87;;;2.00;;
4933;SDS011;2482;49.154;8.254;2022-10-26T11:52:59;4.87;;;2.20;;
4933;SDS011;2482;49.154;8.254;2022-10-26T11:55:52;6.63;;;2.20;;
4933;SDS011;2482;49.154;8.254;2022-10-26T11:58:22;7.03;;;2.27;;
4933;SDS011;2482;49.154;8.254;2022-10-26T12:00:57;4.63;;;2.33;;
4933;SDS011;2482;49.154;8.254;2022-10-26T12:03:40;5.47;;;2.20;;
4933;SDS011;2482;49.154;8.254;2022-10-26T12:06:14;9.90;;;2.40;;
4933;SDS011;2482;49.154;8.254;2022-10-26T12:08:53;8.67;;;2.47;;
4933;SDS011;2482;49.154;8.254;2022-10-26T12:14:25;7.93;;;2.03;;
4933;SDS011;2482;49.154;8.254;2022-10-26T12:23:18;6.17;;;2.07;;
4933;SDS011;2482;49.154;8.254;2022-10-26T12:34:04;5.97;;;2.20;;
4933;SDS011;2482;49.154;8.254;2022-10-26T12:39:29;6.03;;;2.00;;
4933;SDS011;2482;49.154;8.254;2022-10-26T12:49:58;5.20;;;2.20;;
4933;SDS011;2482;49.154;8.254;2022-10-26T13:09:32;4.73;;;2.00;;
4933;SDS011;2482;49.154;8.254;2022-10-26T13:12:00;8.10;;;2.10;;
4933;SDS011;2482;49.154;8.254;2022-10-26T13:14:32;6.70;;;2.43;;
4933;SDS011;2482;49.154;8.254;2022-10-26T13:17:03;7.73;;;2.33;;
4933;SDS011;2482;49.154;8.254;2022-10-26T13:19:43;8.43;;;1.97;;
4933;SDS011;2482;49.154;8.254;2022-10-26T13:22:21;7.83;;;2.27;;
4933;SDS011;2482;49.154;8.254;2022-10-26T13:24:59;6.97;;;1.93;;
4933;SDS011;2482;49.154;8.254;2022-10-26T13:32:36;4.20;;;2.13;;
4933;SDS011;2482;49.154;8.254;2022-10-26T13:35:09;15.40;;;3.40;;
4933;SDS011;2482;49.154;8.254;2022-10-26T13:37:40;6.07;;;1.97;;
4933;SDS011;2482;49.154;8.254;2022-10-26T13:40:14;5.00;;;2.27;;
4933;SDS011;2482;49.154;8.254;2022-10-26T13:42:48;5.33;;;2.10;;
4933;SDS011;2482;49.154;8.254;2022-10-26T13:45:21;3.80;;;2.07;;
4933;SDS011;2482;49.154;8.254;2022-10-26T13:48:02;3.00;;;1.93;;
4933;SDS011;2482;49.154;8.254;2022-10-26T13:50:53;4.80;;;2.37;;
4933;SDS011;2482;49.154;8.254;2022-10-26T13:53:42;8.70;;;2.10;;
4933;SDS011;2482;49.154;8.254;2022-10-26T13:56:18;6.63;;;1.93;;
4933;SDS011;2482;49.154;8.254;2022-10-26T13:58:59;2.60;;;1.60;;
4933;SDS011;2482;49.154;8.254;2022-10-26T14:01:38;5.57;;;2.17;;
4933;SDS011;2482;49.154;8.254;2022-10-26T14:04:15;6.00;;;1.97;;
4933;SDS011;2482;49.154;8.254;2022-10-26T14:06:52;7.87;;;2.80;;
4933;SDS011;2482;49.154;8.254;2022-10-26T14:09:20;3.47;;;1.80;;
4933;SDS011;2482;49.154;8.254;2022-10-26T14:11:49;6.30;;;1.90;;
4933;SDS011;2482;49.154;8.254;2022-10-26T14:14:23;6.13;;;2.13;;
4933;SDS011;2482;49.154;8.254;2022-10-26T14:17:00;5.67;;;2.03;;
4933;SDS011;2482;49.154;8.254;2022-10-26T14:19:29;7.97;;;1.90;;
4933;SDS011;2482;49.154;8.254;2022-10-26T14:22:02;6.43;;;2.30;;
4933;SDS011;2482;49.154;8.254;2022-10-26T14:24:31;3.80;;;1.83;;
4933;SDS011;2482;49.154;8.254;2022-10-26T14:27:16;4.93;;;2.13;;
4933;SDS011;2482;49.154;8.254;2022-10-26T14:29:45;7.10;;;1.90;;
4933;SDS011;2482;49.154;8.254;2022-10-26T14:32:32;9.00;;;2.07;;
4933;SDS011;2482;49.154;8.254;2022-10-26T14:35:00;3.90;;;1.70;;
4933;SDS011;2482;49.154;8.254;2022-10-26T14:37:44;6.17;;;1.70;;
4933;SDS011;2482;49.154;8.254;2022-10-26T14:40:23;5.50;;;1.80;;
4933;SDS011;2482;49.154;8.254;2022-10-26T14:42:54;5.23;;;1.77;;
4933;SDS011;2482;49.154;8.254;2022-10-26T14:48:24;3.37;;;1.60;;
4933;SDS011;2482;49.154;8.254;2022-10-26T14:53:51;2.57;;;1.53;;
4933;SDS011;2482;49.154;8.254;2022-10-26T15:05:02;7.43;;;2.10;;
4933;SDS011;2482;49.154;8.254;2022-10-26T15:07:42;4.03;;;2.00;;
4933;SDS011;2482;49.154;8.254;2022-10-26T15:13:09;5.27;;;2.03;;
4933;SDS011;2482;49.154;8.254;2022-10-26T15:15:39;3.77;;;2.00;;
4933;SDS011;2482;49.154;8.254;2022-10-26T15:18:14;6.77;;;1.97;;
4933;SDS011;2482;49.154;8.254;2022-10-26T15:20:52;6.17;;;2.00;;
4933;SDS011;2482;49.154;8.254;2022-10-26T15:23:20;6.40;;;2.13;;
4933;SDS011;2482;49.154;8.254;2022-10-26T15:25:53;4.23;;;1.90;;
4933;SDS011;2482;49.154;8.254;2022-10-26T15:28:24;4.77;;;2.17;;
4933;SDS011;2482;49.154;8.254;2022-10-26T15:36:19;4.07;;;2.13;;
4933;SDS011;2482;49.154;8.254;2022-10-26T15:38:49;9.10;;;2.37;;
4933;SDS011;2482;49.154;8.254;2022-10-26T15:44:05;4.47;;;2.20;;
4933;SDS011;2482;49.154;8.254;2022-10-26T15:46:41;5.90;;;2.10;;
4933;SDS011;2482;49.154;8.254;2022-10-26T15:49:13;9.93;;;2.10;;
4933;SDS011;2482;49.154;8.254;2022-10-26T15:51:45;6.43;;;2.07;;
4933;SDS011;2482;49.154;8.254;2022-10-26T15:54:13;7.07;;;2.30;;
4933;SDS011;2482;49.154;8.254;2022-10-26T15:56:41;4.60;;;1.93;;
4933;SDS011;2482;49.154;8.254;2022-10-26T15:59:13;3.67;;;1.77;;
4933;SDS011;2482;49.154;8.254;2022-10-26T16:01:43;7.43;;;2.23;;
4933;SDS011;2482;49.154;8.254;2022-10-26T16:04:10;5.87;;;2.00;;
4933;SDS011;2482;49.154;8.254;2022-10-26T16:06:38;5.07;;;1.90;;
4933;SDS011;2482;49.154;8.254;2022-10-26T16:09:09;4.47;;;2.27;;
4933;SDS011;2482;49.154;8.254;2022-10-26T16:11:41;6.17;;;1.83;;
4933;SDS011;2482;49.154;8.254;2022-10-26T16:14:10;5.00;;;2.10;;
4933;SDS011;2482;49.154;8.254;2022-10-26T16:16:38;2.90;;;1.87;;
4933;SDS011;2482;49.154;8.254;2022-10-26T16:19:05;7.20;;;2.00;;
4933;SDS011;2482;49.154;8.254;2022-10-26T16:21:52;4.50;;;2.17;;
4933;SDS011;2482;49.154;8.254;2022-10-26T16:24:19;4.50;;;2.00;;
4933;SDS011;2482;49.154;8.254;2022-10-26T16:26:46;4.07;;;2.20;;
4933;SDS011;2482;49.154;8.254;2022-10-26T16:29:13;3.83;;;1.90;;
4933;SDS011;2482;49.154;8.254;2022-10-26T16:31:40;5.60;;;2.30;;
4933;SDS011;2482;49.154;8.254;2022-10-26T16:34:07;4.33;;;1.97;;
4933;SDS011;2482;49.154;8.254;2022-10-26T16:36:34;4.33;;;2.23;;
4933;SDS011;2482;49.154;8.254;2022-10-26T16:39:06;5.23;;;2.60;;
4933;SDS011;2482;49.154;8.254;2022-10-26T16:41:36;6.97;;;1.70;;
4933;SDS011;2482;49.154;8.254;2022-10-26T16:44:03;4.30;;;2.30;;
4933;SDS011;2482;49.154;8.254;2022-10-26T16:46:31;5.63;;;2.50;;
4933;SDS011;2482;49.154;8.254;2022-10-26T16:48:58;2.90;;;1.60;;
4933;SDS011;2482;49.154;8.254;2022-10-26T16:51:26;4.33;;;1.90;;
4933;SDS011;2482;49.154;8.254;2022-10-26T16:53:54;11.03;;;2.27;;
4933;SDS011;2482;49.154;8.254;2022-10-26T16:56:23;9.03;;;2.40;;
4933;SDS011;2482;49.154;8.254;2022-10-26T16:58:53;5.50;;;3.30;;
4933;SDS011;2482;49.154;8.254;2022-10-26T17:01:21;5.17;;;3.60;;
4933;SDS011;2482;49.154;8.254;2022-10-26T17:03:49;5.97;;;3.03;;
4933;SDS011;2482;49.154;8.254;2022-10-26T17:06:17;8.33;;;3.93;;
4933;SDS011;2482;49.154;8.254;2022-10-26T17:08:45;8.07;;;3.63;;
4933;SDS011;2482;49.154;8.254;2022-10-26T17:11:13;7.20;;;4.00;;
4933;SDS011;2482;49.154;8.254;2022-10-26T17:13:44;9.10;;;4.27;;
4933;SDS011;2482;49.154;8.254;2022-10-26T17:18:41;9.77;;;5.63;;
4933;SDS011;2482;49.154;8.254;2022-10-26T17:21:10;8.40;;;4.83;;
4933;SDS011;2482;49.154;8.254;2022-10-26T17:23:39;10.87;;;5.70;;
4933;SDS011;2482;49.154;8.254;2022-10-26T17:26:07;9.27;;;5.90;;
4933;SDS011;2482;49.154;8.254;2022-10-26T17:28:36;8.57;;;5.50;;
4933;SDS011;2482;49.154;8.254;2022-10-26T17:31:08;11.87;;;5.77;;
4933;SDS011;2482;49.154;8.254;2022-10-26T17:33:38;11.10;;;5.20;;
4933;SDS011;2482;49.154;8.254;2022-10-26T17:36:08;9.93;;;6.10;;
4933;SDS011;2482;49.154;8.254;2022-10-26T17:38:38;9.67;;;4.70;;
4933;SDS011;2482;49.154;8.254;2022-10-26T17:41:10;9.23;;;5.10;;
4933;SDS011;2482;49.154;8.254;2022-10-26T17:43:39;7.10;;;4.33;;
4933;SDS011;2482;49.154;8.254;2022-10-26T17:46:12;8.80;;;3.53;;
4933;SDS011;2482;49.154;8.254;2022-10-26T17:48:45;5.03;;;2.70;;
4933;SDS011;2482;49.154;8.254;2022-10-26T17:51:13;4.43;;;2.60;;
4933;SDS011;2482;49.154;8.254;2022-10-26T17:53:45;5.80;;;3.20;;
4933;SDS011;2482;49.154;8.254;2022-10-26T17:56:15;6.77;;;4.40;;
4933;SDS011;2482;49.154;8.254;2022-10-26T17:58:44;8.20;;;4.10;;
4933;SDS011;2482;49.154;8.254;2022-10-26T18:01:11;6.07;;;3.60;;
4933;SDS011;2482;49.154;8.254;2022-10-26T18:03:39;5.90;;;3.30;;
4933;SDS011;2482;49.154;8.254;2022-10-26T18:06:07;10.30;;;3.97;;
4933;SDS011;2482;49.154;8.254;2022-10-26T18:08:34;5.13;;;3.13;;
4933;SDS011;2482;49.154;8.254;2022-10-26T18:11:03;5.20;;;3.00;;
4933;SDS011;2482;49.154;8.254;2022-10-26T18:13:32;4.70;;;2.90;;
4933;SDS011;2482;49.154;8.254;2022-10-26T18:16:03;6.73;;;3.17;;
4933;SDS011;2482;49.154;8.254;2022-10-26T18:18:33;4.97;;;2.90;;
4933;SDS011;2482;49.154;8.254;2022-10-26T18:21:03;4.23;;;2.23;;
4933;SDS011;2482;49.154;8.254;2022-10-26T18:23:36;6.57;;;3.13;;
4933;SDS011;2482;49.154;8.254;2022-10-26T18:26:08;9.57;;;3.47;;
4933;SDS011;2482;49.154;8.254;2022-10-26T18:28:40;7.13;;;3.17;;
4933;SDS011;2482;49.154;8.254;2022-10-26T18:31:12;7.63;;;3.23;;
4933;SDS011;2482;49.154;8.254;2022-10-26T18:33:42;7.07;;;3.10;;
4933;SDS011;2482;49.154;8.254;2022-10-26T18:36:10;5.83;;;3.97;;
4933;SDS011;2482;49.154;8.254;2022-10-26T18:38:41;8.87;;;5.10;;
4933;SDS011;2482;49.154;8.254;2022-10-26T18:41:09;13.23;;;4.50;;
4933;SDS011;2482;49.154;8.254;2022-10-26T18:43:38;9.00;;;4.37;;
4933;SDS011;2482;49.154;8.254;2022-10-26T18:46:14;6.47;;;4.00;;